Airfield :
LOGIN :

Register | Disclaimer

   EN    FR    IT 

 










Legend :    VFR   Marginal VFR   IFR   Intensive IFR   Very Intensive IFR
Visi :
Ceiling :
>= 8 km
>= 3000ft
5 to 8 km
1000 to 3000 ft
1500m to 5 km
500 to 1000 ft
800 to 1500m
200 to 500 ft
< 800m
< 200 ft
Symbols :   Thunderstorms  Fog  Heavy snow  Heavy precipitations  Wind > 20 kt
SIGMETs :     Misc.  Thunderstorms  Icing  Turbulence  Mountain Waves  Volcanic Ashes







- Airport Elevation : 2001 ft
- IATA code : MAD


LEMD - Madrid

CURRENT METAR :
  • 250600Z 00000KT CAVOK 21/12 Q1017 NOSIG

EXPIRED METARs :
  • 250530Z VRB02KT CAVOK 20/11 Q1017 NOSIG
  • 250500Z 01003KT CAVOK 20/11 Q1016 NOSIG
  • 250430Z 36003KT CAVOK 21/11 Q1016 NOSIG
  • 250400Z 02002KT CAVOK 21/11 Q1016 NOSIG
  • 250330Z 36001KT CAVOK 21/11 Q1016 NOSIG

TAF TAF LEMD
Valid from the 25 at 06:00 until the 26 at 12:00 UTC


250500Z 2506/2612 VRB05KT CAVOK TX37/2516Z TN19/2605Z
PROB40
TEMPO 2512/2518 FEW040TCU
PROB30
TEMPO 2515/2520 26010KT
No reported NOTAMs for that airfield.
1 SIGMET reported for the Madrid FIR (LECM) :
 
Embedded thunderstorms
LECM SIGMET 2 VALID 250500/250700 LEVA
LECM MADRID FIR/UIR EMBD TS OBS AT 0501Z W OF LINE N4157 W00935 - N4501 W00935 TOP FL450 MOV NW 20KT NC=



MET'MAP, your aeronautical weather chart ! - Copyright ORBIFLY December 2007 - Disclaimer

ORBIFLY MET'MAP TEAM :

Programming & Development : Alexandra Zaïnal
Concept & Development : Baudouin d'Aumeries
Co-Development & Prog : Marc-Olivier Méhu
Technical & hardware support : Manuel Goepfert

Contact : metmap@orbifly.com




SOURCES & CREDITS :

   NOAA